createdAt,value
2019-04-07T00:01:02.356Z,91.10
2019-04-07T00:03:31.078Z,85.60
2019-04-07T00:06:00.077Z,87.35
2019-04-07T00:08:28.669Z,87.82
2019-04-07T00:10:57.864Z,87.95
2019-04-07T00:13:27.182Z,83.52
2019-04-07T00:15:55.878Z,84.28
2019-04-07T00:18:24.403Z,83.35
2019-04-07T00:20:53.000Z,85.00
2019-04-07T00:23:21.680Z,84.17
2019-04-07T00:25:50.931Z,93.00
2019-04-07T00:28:19.767Z,84.15
2019-04-07T00:30:48.892Z,87.42
2019-04-07T00:33:18.157Z,92.22
2019-04-07T00:35:47.263Z,90.12
2019-04-07T00:38:16.153Z,89.50
2019-04-07T00:40:44.976Z,86.45
2019-04-07T00:43:13.756Z,89.80
2019-04-07T00:45:42.724Z,91.57
2019-04-07T00:48:11.249Z,92.92
2019-04-07T00:50:40.580Z,87.22
2019-04-07T00:53:09.865Z,83.85
2019-04-07T00:55:38.580Z,84.13
2019-04-07T00:58:07.382Z,85.65
2019-04-07T01:00:37.811Z,96.60
2019-04-07T01:03:06.427Z,95.10
2019-04-07T01:05:38.550Z,89.80
2019-04-07T01:08:05.411Z,87.35
2019-04-07T01:10:33.988Z,89.85
2019-04-07T01:13:02.704Z,87.70
2019-04-07T01:15:31.678Z,90.72
2019-04-07T01:18:01.120Z,92.78
2019-04-07T01:20:29.866Z,86.22
2019-04-07T01:22:58.761Z,93.35
2019-04-07T01:25:27.337Z,92.82
2019-04-07T01:27:56.582Z,90.20
2019-04-07T01:30:26.079Z,99.77
2019-04-07T01:32:54.812Z,90.53
2019-04-07T01:35:23.415Z,87.17
2019-04-07T01:37:52.009Z,92.35
2019-04-07T01:40:21.032Z,94.17
2019-04-07T01:42:52.177Z,102.85
2019-04-07T01:45:39.254Z,92.63
2019-04-07T01:48:09.475Z,90.45
2019-04-07T01:50:45.968Z,92.10
2019-04-07T01:53:22.906Z,95.60
2019-04-07T01:56:00.236Z,90.28
2019-04-07T01:58:33.095Z,88.05
2019-04-07T02:01:06.552Z,90.25
2019-04-07T02:03:37.389Z,95.32
2019-04-07T02:06:16.637Z,91.28
2019-04-07T02:08:47.470Z,92.50
2019-04-07T02:11:27.463Z,92.22
2019-04-07T02:13:58.377Z,93.15
2019-04-07T02:16:31.795Z,93.33
2019-04-07T02:19:17.419Z,95.03
2019-04-07T02:21:51.529Z,95.92
2019-04-07T02:24:21.918Z,89.55
2019-04-07T02:26:52.263Z,84.70
2019-04-07T02:29:40.064Z,91.87
2019-04-07T02:32:17.301Z,91.08
2019-04-07T02:35:04.195Z,96.87
2019-04-07T02:37:49.991Z,94.30
2019-04-07T02:40:23.445Z,96.70
2019-04-07T02:42:54.408Z,100.72
2019-04-07T02:45:25.014Z,99.10
2019-04-07T02:48:11.434Z,96.08
2019-04-07T02:50:57.485Z,92.20
2019-04-07T02:53:43.656Z,96.30
2019-04-07T02:56:13.958Z,94.85
2019-04-07T02:58:44.418Z,93.17
2019-04-07T03:01:18.026Z,96.15
2019-04-07T03:04:00.178Z,92.15
2019-04-07T03:06:39.326Z,99.62
2019-04-07T03:09:03.492Z,96.08
2019-04-07T03:11:52.679Z,101.60
2019-04-07T03:14:26.349Z,96.82
2019-04-07T03:17:13.916Z,93.80
2019-04-07T03:19:47.275Z,101.25
2019-04-07T03:22:33.914Z,103.70
2019-04-07T03:25:16.204Z,94.45
2019-04-07T03:28:02.926Z,97.57
2019-04-07T03:30:35.557Z,100.75
2019-04-07T03:33:22.664Z,91.00
2019-04-07T03:35:56.791Z,99.58
2019-04-07T03:38:43.021Z,95.60
2019-04-07T03:41:13.552Z,95.00
2019-04-07T03:43:57.080Z,94.47
2019-04-07T03:46:29.968Z,104.07
2019-04-07T03:49:19.994Z,93.97
2019-04-07T03:51:53.263Z,104.17
2019-04-07T03:54:26.662Z,102.60
2019-04-07T03:56:59.323Z,96.00
2019-04-07T03:59:44.911Z,96.67
2019-04-07T04:02:21.627Z,101.10
2019-04-07T04:04:58.354Z,103.50
2019-04-07T04:07:38.645Z,109.40
2019-04-07T04:10:15.818Z,102.35
2019-04-07T04:12:49.890Z,102.80
2019-04-07T04:15:21.058Z,104.17
2019-04-07T04:17:49.733Z,104.50
2019-04-07T04:20:18.326Z,99.47
2019-04-07T04:22:46.913Z,98.85
2019-04-07T04:25:15.706Z,100.90
2019-04-07T04:27:44.323Z,101.25
2019-04-07T04:30:13.467Z,103.58
2019-04-07T04:32:42.088Z,112.83
2019-04-07T04:35:11.204Z,109.97
2019-04-07T04:37:47.553Z,101.45
2019-04-07T04:40:10.824Z,101.02
2019-04-07T04:42:39.372Z,97.05
2019-04-07T04:45:10.397Z,107.22
2019-04-07T04:47:39.398Z,98.90
2019-04-07T04:50:09.870Z,104.38
2019-04-07T04:52:39.156Z,100.70
2019-04-07T04:55:09.145Z,103.95
2019-04-07T04:57:37.837Z,95.72
2019-04-07T05:00:10.378Z,97.78
2019-04-07T05:02:39.440Z,111.97
2019-04-07T05:05:09.545Z,103.85
2019-04-07T05:07:49.970Z,107.95
2019-04-07T05:10:10.218Z,110.50
2019-04-07T05:12:39.118Z,105.17
2019-04-07T05:15:08.802Z,103.70
2019-04-07T05:17:38.052Z,105.92
2019-04-07T05:20:07.994Z,105.85
2019-04-07T05:22:36.989Z,103.20
2019-04-07T05:25:07.077Z,99.80
2019-04-07T05:27:35.898Z,102.72
2019-04-07T05:30:07.741Z,102.22
2019-04-07T05:32:36.817Z,104.05
2019-04-07T05:35:08.805Z,107.75
2019-04-07T05:37:37.506Z,100.70
2019-04-07T05:40:06.599Z,101.47
2019-04-07T05:42:35.481Z,105.15
2019-04-07T05:45:06.519Z,92.88
2019-04-07T05:47:35.205Z,104.20
2019-04-07T05:50:05.281Z,89.55
2019-04-07T05:52:39.294Z,104.45
2019-04-07T05:55:06.399Z,95.95
2019-04-07T05:57:37.797Z,93.87
2019-04-07T06:00:15.631Z,101.47
2019-04-07T06:02:44.094Z,95.42
2019-04-07T06:05:13.169Z,98.58
2019-04-07T06:07:42.550Z,101.25
2019-04-07T06:10:11.969Z,95.40
2019-04-07T06:12:43.927Z,96.50
2019-04-07T06:15:11.893Z,97.88
2019-04-07T06:17:41.082Z,92.02
2019-04-07T06:20:14.253Z,102.35
2019-04-07T06:22:40.526Z,85.50
2019-04-07T06:25:09.850Z,88.00
2019-04-07T06:27:38.487Z,85.75
2019-04-07T06:30:09.677Z,86.42
2019-04-07T06:32:39.495Z,97.00
2019-04-07T06:35:12.312Z,91.00
2019-04-07T06:37:40.618Z,88.17
2019-04-07T06:40:10.055Z,85.62
2019-04-07T06:42:38.890Z,87.90
2019-04-07T06:45:10.955Z,85.35
2019-04-07T06:52:58.970Z,76.45
2019-04-07T06:55:46.142Z,70.85
2019-04-07T06:58:21.819Z,73.45
2019-04-07T07:01:07.792Z,77.92
2019-04-07T07:03:47.601Z,70.32
2019-04-07T07:06:34.117Z,72.27
2019-04-07T07:09:04.415Z,73.75
2019-04-07T07:11:43.044Z,69.77
2019-04-07T07:14:14.418Z,71.28
2019-04-07T07:16:54.456Z,77.30
2019-04-07T07:19:41.218Z,69.85
2019-04-07T07:22:16.137Z,66.77
2019-04-07T07:24:46.751Z,69.60
2019-04-07T07:27:15.392Z,67.15
2019-04-07T07:29:46.019Z,67.25
2019-04-07T07:32:14.825Z,62.90
2019-04-07T07:34:43.539Z,63.17
2019-04-07T07:37:13.316Z,67.40
2019-04-07T07:39:44.518Z,57.78
2019-04-07T07:42:12.298Z,63.63
2019-04-07T07:44:41.736Z,66.57
2019-04-07T07:47:10.402Z,58.83
2019-04-07T07:49:40.301Z,56.50
2019-04-07T07:52:10.403Z,55.28
2019-04-07T07:54:38.932Z,54.95
2019-04-07T07:57:07.996Z,58.10
2019-04-07T07:59:38.736Z,57.50
2019-04-07T08:02:07.590Z,54.75
2019-04-07T08:04:36.625Z,55.08
2019-04-07T08:07:05.483Z,49.65
2019-04-07T08:09:34.194Z,49.38
2019-04-07T08:12:03.579Z,48.42
2019-04-07T08:14:32.523Z,55.20
2019-04-07T08:17:03.353Z,49.45
2019-04-07T08:19:31.820Z,44.55
2019-04-07T08:22:01.711Z,44.25
2019-04-07T08:24:32.738Z,45.30
2019-04-07T08:27:01.293Z,47.83
2019-04-07T08:29:30.143Z,40.90
2019-04-07T08:32:02.096Z,44.38
2019-04-07T08:34:32.843Z,37.08
2019-04-07T08:37:03.718Z,44.40
2019-04-07T08:39:36.051Z,37.23
2019-04-07T08:42:09.630Z,40.00
2019-04-07T08:44:34.489Z,39.48
2019-04-07T08:47:03.035Z,40.55
2019-04-07T08:49:33.389Z,40.67
2019-04-07T08:52:07.295Z,39.63
2019-04-07T08:54:32.909Z,47.15
2019-04-07T08:57:01.865Z,35.40
2019-04-07T08:59:31.346Z,42.40
2019-04-07T09:02:00.197Z,36.73
2019-04-07T09:04:29.431Z,35.55
2019-04-07T09:07:00.731Z,36.80
2019-04-07T09:09:34.117Z,41.55
2019-04-07T09:11:59.295Z,44.18
2019-04-07T09:14:28.410Z,43.02
2019-04-07T09:17:13.695Z,36.25
2019-04-07T09:19:49.813Z,39.03
2019-04-07T09:22:30.684Z,36.77
2019-04-07T09:25:09.794Z,37.67
2019-04-07T09:27:43.221Z,30.60
2019-04-07T09:30:15.297Z,32.10
2019-04-07T09:35:26.344Z,40.12
2019-04-07T09:38:03.107Z,38.17
2019-04-07T09:40:48.200Z,36.33
2019-04-07T09:43:33.677Z,29.15
2019-04-07T09:46:21.819Z,33.85
2019-04-07T09:48:52.867Z,30.20
2019-04-07T09:51:26.551Z,34.50
2019-04-07T09:53:57.494Z,37.28
2019-04-07T09:56:45.053Z,30.05
2019-04-07T09:59:31.889Z,26.33
2019-04-07T10:02:18.535Z,30.62
2019-04-07T10:05:01.316Z,27.55
2019-04-07T10:07:34.826Z,20.45
2019-04-07T10:10:12.949Z,25.72
2019-04-07T10:12:57.641Z,27.90
2019-04-07T10:15:46.404Z,25.25
2019-04-07T10:18:16.809Z,21.82
2019-04-07T10:20:50.318Z,26.62
2019-04-07T10:23:24.168Z,24.32
2019-04-07T10:26:07.349Z,20.35
2019-04-07T10:28:40.081Z,18.75
2019-04-07T10:33:42.775Z,20.52
2019-04-07T10:36:15.935Z,18.37
2019-04-07T10:38:57.912Z,17.40
2019-04-07T10:41:31.215Z,22.42
2019-04-07T10:44:01.670Z,18.98
2019-04-07T10:46:41.269Z,19.67
2019-04-07T10:49:11.394Z,20.17
2019-04-07T10:51:51.275Z,17.20
2019-04-07T10:54:38.170Z,20.70
2019-04-07T10:57:12.202Z,17.05
2019-04-07T10:59:49.226Z,14.60
2019-04-07T11:02:26.081Z,21.62
2019-04-07T11:04:59.207Z,20.85
2019-04-07T11:07:29.336Z,17.55
2019-04-07T11:10:12.675Z,20.12
2019-04-07T11:12:52.447Z,17.80
2019-04-07T11:15:35.141Z,17.90
2019-04-07T11:18:20.708Z,19.62
2019-04-07T11:20:51.059Z,18.10
2019-04-07T11:23:29.817Z,18.87
2019-04-07T11:26:16.797Z,24.32
2019-04-07T11:28:56.777Z,18.30
2019-04-07T11:31:30.968Z,21.93
2019-04-07T11:34:01.277Z,22.05
2019-04-07T11:36:49.880Z,18.12
2019-04-07T11:39:20.241Z,21.25
2019-04-07T11:42:05.995Z,19.77
2019-04-07T11:44:53.054Z,20.77
2019-04-07T11:47:40.561Z,17.17
2019-04-07T11:50:15.117Z,19.92
2019-04-07T11:52:46.168Z,16.50
2019-04-07T11:55:33.435Z,19.35
2019-04-07T11:58:13.670Z,18.15
2019-04-07T12:00:38.833Z,23.65
2019-04-07T12:05:49.399Z,18.37
2019-04-07T12:08:38.677Z,16.00
2019-04-07T12:11:27.708Z,18.37
2019-04-07T12:14:10.656Z,13.90
2019-04-07T12:16:50.424Z,18.05
2019-04-07T12:19:23.847Z,15.30
2019-04-07T12:22:02.355Z,15.83
2019-04-07T12:24:50.191Z,18.50
2019-04-07T12:27:37.777Z,15.03
2019-04-07T12:30:10.083Z,15.18
2019-04-07T12:32:41.431Z,17.42
2019-04-07T12:35:21.487Z,16.12
2019-04-07T12:38:00.377Z,20.75
2019-04-07T12:40:43.124Z,17.73
2019-04-07T12:43:14.156Z,15.15
2019-04-07T12:45:50.162Z,19.62
2019-04-07T12:48:36.654Z,17.92
2019-04-07T12:51:07.410Z,18.00
2019-04-07T12:53:41.135Z,16.17
2019-04-07T12:56:14.317Z,15.43
2019-04-07T12:58:50.631Z,16.48
2019-04-07T13:01:21.180Z,23.80
2019-04-07T13:03:54.746Z,18.98
2019-04-07T13:06:31.874Z,14.60
2019-04-07T13:09:02.150Z,20.50
2019-04-07T13:11:45.732Z,14.33
2019-04-07T13:14:14.032Z,19.85
2019-04-07T13:17:00.191Z,18.92
2019-04-07T13:19:47.707Z,17.42
2019-04-07T13:22:22.565Z,18.87
2019-04-07T13:25:09.122Z,19.17
2019-04-07T13:27:52.083Z,17.60
2019-04-07T13:30:38.924Z,16.27
2019-04-07T13:33:16.430Z,16.77
2019-04-07T13:35:56.284Z,17.27
2019-04-07T13:38:26.495Z,19.37
2019-04-07T13:41:12.269Z,17.98
2019-04-07T13:43:48.669Z,19.57
2019-04-07T13:46:36.264Z,18.52
2019-04-07T13:49:07.588Z,18.40
2019-04-07T13:51:37.809Z,17.17
2019-04-07T13:54:25.373Z,16.70
2019-04-07T13:57:05.530Z,19.55
2019-04-07T13:59:45.339Z,16.67
2019-04-07T14:02:31.642Z,19.17
2019-04-07T14:05:05.141Z,16.45
2019-04-07T14:07:35.199Z,15.35
2019-04-07T14:10:22.770Z,17.75
2019-04-07T14:12:53.312Z,18.67
2019-04-07T14:15:39.709Z,19.12
2019-04-07T14:18:13.415Z,13.72
2019-04-07T14:20:54.016Z,12.88
2019-04-07T14:23:27.584Z,18.77
2019-04-07T14:26:03.528Z,16.35
2019-04-07T14:28:40.127Z,14.53
2019-04-07T14:31:13.339Z,15.43
2019-04-07T14:33:49.482Z,13.62
2019-04-07T14:36:22.460Z,16.77
2019-04-07T14:38:55.916Z,15.88
2019-04-07T14:41:30.168Z,14.65
2019-04-07T14:44:16.579Z,15.70
2019-04-07T14:47:03.262Z,17.87
2019-04-07T14:49:51.542Z,14.15
2019-04-07T14:52:24.318Z,16.35
2019-04-07T14:54:59.855Z,15.83
2019-04-07T14:57:39.061Z,13.15
2019-04-07T15:00:20.409Z,17.32
2019-04-07T15:02:49.892Z,14.03
2019-04-07T15:05:25.232Z,13.65
2019-04-07T15:07:59.678Z,15.90
2019-04-07T15:10:29.725Z,14.85
2019-04-07T15:13:00.042Z,18.42
2019-04-07T15:15:28.638Z,15.32
2019-04-07T15:17:57.651Z,12.85
2019-04-07T15:20:27.005Z,14.15
2019-04-07T15:22:58.418Z,15.43
2019-04-07T15:25:27.610Z,16.35
2019-04-07T15:27:58.895Z,15.20
2019-04-07T15:30:26.641Z,16.05
2019-04-07T15:32:57.807Z,13.58
2019-04-07T15:35:26.451Z,13.90
2019-04-07T15:37:55.053Z,14.60
2019-04-07T15:40:23.581Z,20.00
2019-04-07T15:42:52.662Z,16.80
2019-04-07T15:45:22.027Z,13.72
2019-04-07T15:47:52.913Z,17.60
2019-04-07T15:50:21.562Z,18.10
2019-04-07T15:52:50.858Z,20.17
2019-04-07T15:55:19.520Z,12.78
2019-04-07T15:57:48.137Z,16.17
2019-04-07T16:00:17.331Z,18.23
2019-04-07T16:02:46.103Z,15.45
2019-04-07T16:05:15.944Z,18.65
2019-04-07T16:07:44.901Z,22.58
2019-04-07T16:10:15.456Z,16.80
2019-04-07T16:12:49.941Z,19.15
2019-04-07T16:15:16.424Z,17.67
2019-04-07T16:17:47.195Z,19.42
2019-04-07T16:20:23.081Z,19.35
2019-04-07T16:22:47.888Z,17.37
2019-04-07T16:25:17.036Z,19.82
2019-04-07T16:27:45.735Z,27.13
2019-04-07T16:30:17.427Z,24.40
2019-04-07T16:32:46.762Z,25.17
2019-04-07T16:35:16.620Z,20.88
2019-04-07T16:37:45.841Z,22.37
2019-04-07T16:40:14.926Z,27.42
2019-04-07T16:42:54.554Z,23.95
2019-04-07T16:45:17.497Z,26.62
2019-04-07T16:47:45.491Z,24.67
2019-04-07T16:50:18.119Z,23.90
2019-04-07T16:52:44.837Z,25.82
2019-04-07T16:55:40.163Z,24.07
2019-04-07T16:58:09.762Z,30.50
2019-04-07T17:00:39.719Z,26.45
2019-04-07T17:03:09.846Z,23.45
2019-04-07T17:05:39.648Z,23.85
2019-04-07T17:08:08.779Z,22.55
2019-04-07T17:10:37.615Z,21.33
2019-04-07T17:13:17.839Z,20.57
2019-04-07T17:15:40.420Z,24.90
2019-04-07T17:18:10.680Z,25.55
2019-04-07T17:20:39.298Z,22.17
2019-04-07T17:23:07.799Z,21.42
2019-04-07T17:25:36.278Z,26.68
2019-04-07T17:28:06.318Z,19.32
2019-04-07T17:30:38.087Z,19.62
2019-04-07T17:33:06.583Z,20.57
2019-04-07T17:35:35.773Z,21.37
2019-04-07T17:38:06.994Z,25.00
2019-04-07T17:40:37.784Z,24.90
2019-04-07T17:43:25.707Z,25.50
2019-04-07T17:46:02.386Z,23.55
2019-04-07T17:48:39.342Z,22.95
2019-04-07T17:51:07.064Z,23.22
2019-04-07T17:56:10.885Z,25.52
2019-04-07T17:58:53.433Z,23.50
2019-04-07T18:01:28.651Z,25.48
2019-04-07T18:04:08.212Z,23.18
2019-04-07T18:06:44.583Z,24.30
2019-04-07T18:09:24.866Z,24.00
2019-04-07T18:12:14.469Z,23.00
2019-04-07T18:14:57.384Z,26.97
2019-04-07T18:17:55.968Z,21.82
2019-04-07T18:20:31.635Z,21.40
2019-04-07T18:23:21.449Z,23.70
2019-04-07T18:25:55.665Z,26.87
2019-04-07T18:28:32.548Z,23.32
2019-04-07T18:31:11.690Z,25.57
2019-04-07T18:34:00.641Z,28.38
2019-04-07T18:36:29.583Z,24.32
2019-04-07T18:39:03.370Z,28.20
2019-04-07T18:41:36.788Z,25.30
2019-04-07T18:44:10.765Z,28.92
2019-04-07T18:46:41.102Z,21.50
2019-04-07T18:49:23.916Z,30.43
2019-04-07T18:51:54.052Z,26.90
2019-04-07T18:54:36.498Z,28.83
2019-04-07T18:57:10.495Z,24.98
2019-04-07T18:59:41.470Z,25.02
2019-04-07T19:02:28.923Z,23.85
2019-04-07T19:05:15.701Z,29.15
2019-04-07T19:07:50.399Z,24.02
2019-04-07T19:10:24.202Z,24.10
2019-04-07T19:13:03.079Z,24.82
2019-04-07T19:15:24.370Z,25.72
2019-04-07T19:18:12.754Z,25.00
2019-04-07T19:20:59.462Z,26.60
2019-04-07T19:23:35.264Z,30.30
2019-04-07T19:26:08.373Z,24.67
2019-04-07T19:28:44.225Z,26.82
2019-04-07T19:31:29.989Z,24.10
2019-04-07T19:34:03.766Z,24.85
2019-04-07T19:36:52.165Z,27.70
2019-04-07T19:39:24.670Z,22.60
2019-04-07T19:42:01.387Z,21.90
2019-04-07T19:44:37.074Z,20.15
2019-04-07T19:47:20.678Z,22.17
2019-04-07T19:49:52.307Z,21.87
2019-04-07T19:52:31.500Z,21.20
2019-04-07T19:55:13.115Z,22.48
2019-04-07T20:00:25.872Z,19.65
2019-04-07T20:03:12.779Z,23.40
2019-04-07T20:05:44.324Z,22.45
2019-04-07T20:08:34.536Z,25.65
2019-04-07T20:11:03.127Z,20.75
2019-04-07T20:13:39.472Z,23.62
2019-04-07T20:16:15.549Z,20.72
2019-04-07T20:18:58.696Z,22.62
2019-04-07T20:21:42.783Z,21.33
2019-04-07T20:24:13.758Z,22.52
2019-04-07T20:26:44.689Z,25.25
2019-04-07T20:29:21.568Z,17.87
2019-04-07T20:31:57.347Z,23.98
2019-04-07T20:34:30.819Z,24.23
2019-04-07T20:37:05.047Z,20.00
2019-04-07T20:39:36.600Z,21.93
2019-04-07T20:42:15.889Z,21.77
2019-04-07T20:44:58.509Z,20.80
2019-04-07T20:47:36.743Z,25.88
2019-04-07T20:50:16.653Z,21.45
2019-04-07T20:53:12.455Z,21.07
2019-04-07T20:55:39.558Z,22.52
2019-04-07T20:58:18.752Z,22.07
2019-04-07T21:00:59.434Z,22.15
2019-04-07T21:03:39.124Z,21.25
2019-04-07T21:06:30.077Z,22.00
2019-04-07T21:09:02.741Z,22.90
2019-04-07T21:11:31.683Z,22.98
2019-04-07T21:14:11.385Z,22.50
2019-04-07T21:16:44.374Z,25.48
2019-04-07T21:19:18.734Z,20.48
2019-04-07T21:22:05.509Z,29.07
2019-04-07T21:24:40.076Z,24.52
2019-04-07T21:27:27.136Z,24.95
2019-04-07T21:29:59.110Z,25.52
2019-04-07T21:32:29.782Z,23.13
2019-04-07T21:35:01.907Z,27.80
2019-04-07T21:37:49.362Z,23.62
2019-04-07T21:40:28.662Z,27.13
2019-04-07T21:43:00.508Z,30.48
2019-04-07T21:45:38.971Z,29.75
2019-04-07T21:48:08.490Z,29.15
2019-04-07T21:50:44.908Z,28.15
2019-04-07T21:53:29.522Z,26.10
2019-04-07T21:56:15.691Z,32.60
2019-04-07T21:58:57.574Z,28.60
2019-04-07T22:01:39.911Z,29.40
2019-04-07T22:04:28.561Z,28.60
2019-04-07T22:07:03.687Z,24.10
2019-04-07T22:09:34.391Z,26.20
2019-04-07T22:12:03.051Z,26.65
2019-04-07T22:14:31.660Z,25.40
2019-04-07T22:17:02.465Z,27.73
2019-04-07T22:19:30.348Z,26.25
2019-04-07T22:21:59.034Z,28.25
2019-04-07T22:24:31.269Z,27.98
2019-04-07T22:26:59.291Z,28.35
2019-04-07T22:29:28.746Z,25.37
2019-04-07T22:31:59.737Z,25.65
2019-04-07T22:34:32.283Z,25.50
2019-04-07T22:36:59.046Z,29.85
2019-04-07T22:39:29.780Z,25.77
2019-04-07T22:41:58.337Z,27.58
2019-04-07T22:44:26.893Z,30.17
2019-04-07T22:46:55.411Z,28.80
2019-04-07T22:49:28.595Z,27.35
2019-04-07T22:51:56.240Z,27.22
2019-04-07T22:54:29.502Z,29.55
2019-04-07T22:56:55.105Z,27.15
2019-04-07T22:59:24.365Z,30.95
2019-04-07T23:01:53.610Z,29.85
2019-04-07T23:04:22.371Z,32.60
2019-04-07T23:06:50.857Z,33.30
2019-04-07T23:09:19.912Z,30.12
2019-04-07T23:11:48.370Z,33.92
2019-04-07T23:14:17.856Z,30.25
2019-04-07T23:16:46.598Z,34.00
2019-04-07T23:19:15.208Z,31.33
2019-04-07T23:21:44.011Z,31.75
2019-04-07T23:24:12.925Z,31.12
2019-04-07T23:26:42.525Z,34.63
2019-04-07T23:29:12.093Z,31.60
2019-04-07T23:31:41.346Z,36.95
2019-04-07T23:34:10.566Z,36.38
2019-04-07T23:36:39.075Z,33.58
2019-04-07T23:39:08.008Z,37.08
2019-04-07T23:41:37.291Z,35.95
2019-04-07T23:44:06.078Z,32.55
2019-04-07T23:47:13.968Z,34.65
2019-04-07T23:49:42.630Z,35.05
2019-04-07T23:52:11.216Z,34.25
2019-04-07T23:54:39.824Z,33.95
2019-04-07T23:57:08.309Z,40.12
2019-04-07T23:59:36.771Z,39.13
